Weather at Johnson Field

Public forecast

Using degrees Fahrenheit for public forecast. Weather courtesy of forecast.io.

Closest aviation weather report (METAR) to Johnson Field

Closest report is Accomack County Airport, 3.8 nm (7.1 km) SSW. Retrieved 2021/06/13 17:55 UTC (15 minutes ago):

KMFV 131755Z AUTO 13007KT 10SM CLR 23/15 A2993 RMK AO2 T02300153 10247 20187

Closest aviation forecast (TAF) to Johnson Field

Closest forecast is Salisbury Ocean City Wicomico Regional Airport, 39.5 nm (73.2 km) NNE. Retrieved 2021/06/13 18:30 UTC (0 seconds ago):

TAF KSBY 131728Z 1318/1418 14006KT P6SM FEW200 FM140400 VRB03KT P6SM BKN100 FM140700 VRB03KT P6SM BKN050 FM141000 17004KT P6SM BKN030 FM141400 20006KT P6SM BKN035